Time;durP1;ratioP1;P1;durP2;ratioP2;P2;SDS_P1;SDS_P2;PMS_P1;PMS_P2;Temp;Humidity;BMP_temperature;BMP_pressure;BME280_temperature;BME280_humidity;BME280_pressure;Samples;Min_cycle;Max_cycle;Signal;HPM_P1;HPM_P2
2023/02/16 00:01:28;;;;;;;;;;;;;;;27.53;18.47;102188.78;5075925;28;988;-28
2023/02/16 00:03:53;;;;;;;;;;;;;;;27.57;18.58;102190.19;5078906;28;1035;-24
2023/02/16 00:06:19;;;;;;;;;;;;;;;27.61;18.54;102187.00;5078438;28;1047;-30
2023/02/16 00:08:47;;;;;;;;;;;;;;;27.89;18.23;102186.19;5078131;28;1072;-25
2023/02/16 00:13:58;;;;;;;;;;;;;;;27.81;17.18;102183.38;5060005;28;1052;-27
2023/02/16 00:16:23;;;;;;;;;;;;;;;28.11;17.32;102179.44;5078003;28;1901;-27
2023/02/16 00:18:49;;;;;;;;;;;;;;;28.83;16.64;102182.19;5078236;28;1016;-25
2023/02/16 00:21:14;;;;;;;;;;;;;;;28.81;16.77;102176.94;5077982;28;1098;-25
2023/02/16 00:23:39;;;;;;;;;;;;;;;28.20;17.34;102176.81;5077834;28;1135;-26
2023/02/16 00:26:05;;;;;;;;;;;;;;;27.82;17.29;102174.25;5077860;28;1126;-24
2023/02/16 00:28:30;;;;;;;;;;;;;;;27.57;17.89;102180.22;5060060;28;1112;-28
2023/02/16 00:30:56;;;;;;;;;;;;;;;27.52;17.76;102177.13;5060269;28;1249;-26
2023/02/16 00:33:21;;;;;;;;;;;;;;;27.68;17.67;102179.19;5078265;28;1111;-27
2023/02/16 00:35:47;;;;;;;;;;;;;;;27.74;18.11;102181.28;5077560;28;1969;-25
2023/02/16 00:38:12;;;;;;;;;;;;;;;27.39;18.87;102180.19;5078303;28;1222;-25
2023/02/16 00:40:37;;;;;;;;;;;;;;;28.02;19.21;102180.38;5077959;28;1039;-26
2023/02/16 00:43:03;;;;;;;;;;;;;;;27.83;19.76;102163.28;5078350;28;1135;-27
2023/02/16 00:45:28;;;;;;;;;;;;;;;27.85;19.51;102168.53;5077781;28;2372;-25
2023/02/16 00:47:54;;;;;;;;;;;;;;;27.72;20.00;102166.22;5059700;28;1140;-29
2023/02/16 00:50:23;;;;;;;;;;;;;;;27.86;19.59;102165.69;5077915;28;1127;-27
2023/02/16 00:52:48;;;;;;;;;;;;;;;27.93;19.58;102157.81;5077904;28;1154;-24
2023/02/16 00:55:15;;;;;;;;;;;;;;;27.86;19.71;102162.16;5077783;28;1898;-33
2023/02/16 00:58:00;;;;;;;;;;;;;;;27.93;19.11;102157.81;5077751;28;1233;-26
2023/02/16 01:00:27;;;;;;;;;;;;;;;28.09;19.63;102167.91;5062894;28;1239;-27
2023/02/16 01:02:54;;;;;;;;;;;;;;;28.35;19.25;102153.63;5059674;28;1191;-27
2023/02/16 01:05:20;;;;;;;;;;;;;;;27.87;19.80;102158.44;5059810;28;1071;-26
2023/02/16 01:13:13;;;;;;;;;;;;;;;27.62;20.52;102152.75;5074632;28;887;-27
2023/02/16 01:15:39;;;;;;;;;;;;;;;27.92;19.39;102148.00;5059009;28;1893;-27
2023/02/16 01:18:04;;;;;;;;;;;;;;;27.73;19.38;102148.97;5077356;28;1175;-26
2023/02/16 01:20:30;;;;;;;;;;;;;;;27.87;19.54;102145.75;5076754;28;1079;-25
2023/02/16 01:22:55;;;;;;;;;;;;;;;28.22;19.16;102155.88;5076954;28;1420;-25
2023/02/16 01:25:20;;;;;;;;;;;;;;;28.51;18.57;102154.75;5076394;28;1194;-29
2023/02/16 01:27:46;;;;;;;;;;;;;;;28.28;17.19;102157.09;5077499;28;1170;-26
2023/02/16 01:30:13;;;;;;;;;;;;;;;26.92;16.97;102149.50;5076427;28;1051;-28
2023/02/16 01:32:38;;;;;;;;;;;;;;;26.46;15.84;102152.88;5076924;28;1011;-25
2023/02/16 01:35:04;;;;;;;;;;;;;;;26.57;16.12;102149.19;5076997;28;1035;-25
2023/02/16 01:37:29;;;;;;;;;;;;;;;26.98;16.62;102145.34;5076478;28;1975;-23
2023/02/16 01:39:54;;;;;;;;;;;;;;;26.99;17.32;102147.06;5076454;28;1098;-24
2023/02/16 01:42:44;;;;;;;;;;;;;;;27.05;17.48;102149.19;5076834;28;1138;-25
2023/02/16 01:45:14;;;;;;;;;;;;;;;27.10;17.48;102144.19;5059098;28;1060;-26
2023/02/16 01:47:55;;;;;;;;;;;;;;;27.35;17.88;102144.50;5058626;28;2501;-24
2023/02/16 01:50:24;;;;;;;;;;;;;;;27.40;18.01;102154.84;5047202;28;1187;-25
2023/02/16 01:52:56;;;;;;;;;;;;;;;27.29;18.23;102153.22;5075879;28;1036;-24
2023/02/16 01:55:27;;;;;;;;;;;;;;;27.67;17.95;102160.38;5076424;28;1929;-25
2023/02/16 01:58:25;;;;;;;;;;;;;;;27.33;17.60;102151.91;5076614;28;1187;-29
2023/02/16 02:00:50;;;;;;;;;;;;;;;27.67;18.01;102147.72;5031583;28;1433;-24
2023/02/16 02:06:03;;;;;;;;;;;;;;;27.73;18.30;102147.13;5076308;28;1103;-25
2023/02/16 02:08:28;;;;;;;;;;;;;;;27.02;19.37;102153.06;5076060;28;1066;-30
2023/02/16 02:11:29;;;;;;;;;;;;;;;26.98;19.18;102156.16;5075889;28;1099;-24
2023/02/16 02:13:56;;;;;;;;;;;;;;;26.97;19.20;102157.16;4994265;28;1189;-27
2023/02/16 02:16:22;;;;;;;;;;;;;;;27.09;19.35;102155.97;5053413;28;1905;-24
2023/02/16 02:18:48;;;;;;;;;;;;;;;27.12;19.39;102152.16;5058360;28;1187;-30
2023/02/16 02:24:35;;;;;;;;;;;;;;;27.34;19.62;102150.88;5063622;28;858;-28
2023/02/16 02:27:06;;;;;;;;;;;;;;;27.41;19.63;102144.91;5075906;28;1147;-30
2023/02/16 02:29:31;;;;;;;;;;;;;;;27.32;19.58;102150.22;5075971;28;976;-27
2023/02/16 02:32:16;;;;;;;;;;;;;;;27.49;18.69;102145.00;5075943;28;1126;-29
2023/02/16 02:35:08;;;;;;;;;;;;;;;26.78;15.82;102137.31;5075110;28;1712;-27
2023/02/16 02:37:53;;;;;;;;;;;;;;;26.96;17.13;102136.56;5062542;28;1906;-28
2023/02/16 02:40:18;;;;;;;;;;;;;;;27.19;17.62;102139.75;5057999;28;1091;-22
2023/02/16 02:42:43;;;;;;;;;;;;;;;27.13;18.16;102143.03;5076091;28;1051;-26
2023/02/16 02:45:11;;;;;;;;;;;;;;;27.17;18.11;102144.47;5075945;28;1202;-28
2023/02/16 02:47:43;;;;;;;;;;;;;;;27.12;17.70;102144.91;5058129;28;2612;-28
2023/02/16 02:50:27;;;;;;;;;;;;;;;27.21;17.95;102145.84;5070750;28;857;-25
2023/02/16 02:52:53;;;;;;;;;;;;;;;27.14;17.85;102140.19;5075633;28;1075;-25
2023/02/16 03:00:47;;;;;;;;;;;;;;;27.02;18.57;102134.16;5059902;28;1048;-33
2023/02/16 03:03:30;;;;;;;;;;;;;;;27.40;18.50;102133.25;5058107;28;1008;-32
2023/02/16 03:05:57;;;;;;;;;;;;;;;27.42;18.29;102138.50;5062069;28;1091;-27
2023/02/16 03:08:23;;;;;;;;;;;;;;;28.08;17.25;102132.91;5062030;28;1202;-26
2023/02/16 03:13:35;;;;;;;;;;;;;;;27.75;17.53;102138.88;5078951;28;1107;-32
2023/02/16 03:16:02;;;;;;;;;;;;;;;27.44;18.05;102140.06;5079105;28;2444;-30
2023/02/16 03:29:23;;;;;;;;;;;;;;;28.19;17.60;102148.94;5064098;28;1008;-32
2023/02/16 03:31:49;;;;;;;;;;;;;;;27.92;17.84;102152.56;5079578;28;1170;-30
2023/02/16 03:34:14;;;;;;;;;;;;;;;28.19;18.07;102146.22;5079306;28;1110;-31
2023/02/16 03:36:40;;;;;;;;;;;;;;;28.49;17.83;102148.66;5061515;28;1902;-33
2023/02/16 03:39:05;;;;;;;;;;;;;;;28.23;17.74;102153.00;5078798;28;849;-31
2023/02/16 03:41:37;;;;;;;;;;;;;;;27.80;18.34;102150.09;5060907;28;1107;-27
2023/02/16 03:44:03;;;;;;;;;;;;;;;27.56;18.48;102159.59;5078750;28;1015;-28
2023/02/16 03:46:28;;;;;;;;;;;;;;;27.60;18.66;102158.28;5074713;28;2499;-29
2023/02/16 03:48:53;;;;;;;;;;;;;;;28.14;17.68;102147.69;5078632;28;1114;-32
2023/02/16 03:51:19;;;;;;;;;;;;;;;28.06;17.94;102159.28;5078370;28;1104;-30
2023/02/16 03:53:44;;;;;;;;;;;;;;;28.26;17.75;102156.41;5078931;28;1239;-29
2023/02/16 03:56:09;;;;;;;;;;;;;;;28.22;17.86;102156.72;5078649;28;1905;-30
2023/02/16 03:58:35;;;;;;;;;;;;;;;28.55;17.78;102158.00;5079024;28;1043;-32
2023/02/16 04:01:01;;;;;;;;;;;;;;;27.95;18.39;102157.66;5078463;28;1107;-33
2023/02/16 04:03:26;;;;;;;;;;;;;;;27.65;18.48;102159.69;5078912;28;1401;-29
2023/02/16 04:05:51;;;;;;;;;;;;;;;27.38;18.53;102155.00;5078613;28;1119;-26
2023/02/16 04:08:16;;;;;;;;;;;;;;;27.59;18.69;102159.28;5078599;28;1130;-31
2023/02/16 04:10:42;;;;;;;;;;;;;;;27.93;18.24;102157.81;5078538;28;1032;-32
2023/02/16 04:13:07;;;;;;;;;;;;;;;27.73;19.09;102154.38;5077806;28;1133;-30
2023/02/16 04:15:32;;;;;;;;;;;;;;;28.33;19.62;102152.94;5077748;28;2401;-34
2023/02/16 04:17:58;;;;;;;;;;;;;;;28.35;20.38;102156.34;5078210;28;1059;-29
2023/02/16 04:20:24;;;;;;;;;;;;;;;28.46;20.27;102162.53;5078787;28;1115;-28
2023/02/16 04:22:49;;;;;;;;;;;;;;;27.69;21.47;102161.97;5078465;28;1007;-30
2023/02/16 04:25:14;;;;;;;;;;;;;;;27.35;21.84;102163.41;5076485;28;1213;-24
2023/02/16 04:27:40;;;;;;;;;;;;;;;27.25;21.29;102166.16;5049783;28;1119;-29
2023/02/16 04:30:05;;;;;;;;;;;;;;;27.06;21.78;102158.16;5078437;28;1032;-32
2023/02/16 04:32:31;;;;;;;;;;;;;;;27.36;20.44;102164.28;5078074;28;1088;-29
2023/02/16 04:34:56;;;;;;;;;;;;;;;27.06;20.39;102160.84;5078261;28;1018;-33
2023/02/16 04:37:21;;;;;;;;;;;;;;;27.11;21.00;102166.66;5077615;28;1963;-30
2023/02/16 04:39:46;;;;;;;;;;;;;;;27.46;20.18;102169.63;5078012;28;1178;-33
2023/02/16 04:42:12;;;;;;;;;;;;;;;27.00;20.35;102160.41;5078166;28;1075;-27
2023/02/16 04:44:37;;;;;;;;;;;;;;;27.42;20.15;102169.06;5077541;28;1070;-31
2023/02/16 04:47:03;;;;;;;;;;;;;;;27.62;19.07;102171.66;5077717;28;2714;-27
2023/02/16 04:49:28;;;;;;;;;;;;;;;27.07;15.71;102174.22;5077372;28;1263;-31
2023/02/16 04:51:53;;;;;;;;;;;;;;;25.91;15.64;102170.44;5077545;28;1806;-30
2023/02/16 04:54:18;;;;;;;;;;;;;;;24.27;16.22;102174.63;5077785;28;1039;-30
2023/02/16 04:56:44;;;;;;;;;;;;;;;24.90;15.93;102180.13;5062350;28;1992;-28
2023/02/16 04:59:10;;;;;;;;;;;;;;;25.65;15.42;102179.06;5057609;28;1043;-33
2023/02/16 05:01:35;;;;;;;;;;;;;;;25.79;15.76;102181.34;5057169;28;1094;-29
2023/02/16 05:04:00;;;;;;;;;;;;;;;26.40;16.26;102183.13;5057746;28;1032;-24
2023/02/16 05:06:25;;;;;;;;;;;;;;;26.92;14.61;102186.44;5072285;28;1152;-29
2023/02/16 05:08:51;;;;;;;;;;;;;;;27.51;14.85;102195.19;5077252;28;1078;-29
2023/02/16 05:16:44;;;;;;;;;;;;;;;27.49;16.60;102193.66;5066321;28;2003;-34
2023/02/16 05:19:09;;;;;;;;;;;;;;;27.40;16.99;102200.78;5057594;28;1032;-32
2023/02/16 05:21:35;;;;;;;;;;;;;;;27.53;17.11;102205.84;5063853;28;1032;-34
2023/02/16 05:24:04;;;;;;;;;;;;;;;27.73;16.91;102209.31;5076969;28;1005;-32
2023/02/16 05:26:29;;;;;;;;;;;;;;;27.64;17.47;102207.50;5075715;28;1201;-35
2023/02/16 05:28:55;;;;;;;;;;;;;;;27.63;17.39;102212.06;5039656;28;1116;-29
2023/02/16 05:31:20;;;;;;;;;;;;;;;27.79;17.53;102205.19;5070162;28;1163;-33
2023/02/16 05:33:46;;;;;;;;;;;;;;;27.93;17.32;102213.75;5070563;28;1131;-27
2023/02/16 05:36:11;;;;;;;;;;;;;;;28.37;17.50;102213.00;5057370;28;1902;-28
2023/02/16 05:38:36;;;;;;;;;;;;;;;28.69;17.28;102222.41;5056940;28;1001;-32
2023/02/16 05:41:02;;;;;;;;;;;;;;;28.44;17.74;102216.81;5057089;28;1013;-30
2023/02/16 05:43:27;;;;;;;;;;;;;;;28.10;18.53;102212.91;5063065;28;1068;-33
2023/02/16 05:45:52;;;;;;;;;;;;;;;28.28;18.06;102211.22;5072828;28;1793;-30
2023/02/16 05:48:17;;;;;;;;;;;;;;;28.06;18.37;102216.91;5064869;28;1168;-30
2023/02/16 05:50:43;;;;;;;;;;;;;;;27.90;18.52;102216.75;5061542;28;1230;-31
2023/02/16 05:53:08;;;;;;;;;;;;;;;26.89;19.14;102218.13;5070326;28;996;-27
2023/02/16 05:55:33;;;;;;;;;;;;;;;27.70;18.71;102216.88;5068862;28;1910;-26
2023/02/16 05:57:59;;;;;;;;;;;;;;;27.84;18.95;102215.53;5063095;28;1177;-29
2023/02/16 06:00:24;;;;;;;;;;;;;;;27.74;19.01;102212.88;5076391;28;1264;-31
2023/02/16 06:02:49;;;;;;;;;;;;;;;27.70;19.19;102209.63;5057929;28;1110;-27
2023/02/16 06:05:15;;;;;;;;;;;;;;;27.65;19.40;102214.59;5067807;28;1091;-28
2023/02/16 06:07:40;;;;;;;;;;;;;;;27.78;19.38;102208.03;5063065;28;1023;-27
2023/02/16 06:10:05;;;;;;;;;;;;;;;27.92;18.84;102214.75;5076529;28;1070;-34
2023/02/16 06:12:31;;;;;;;;;;;;;;;27.88;19.13;102219.63;5076450;28;1015;-28
2023/02/16 06:14:57;;;;;;;;;;;;;;;28.44;18.42;102215.94;5070022;28;1095;-33
2023/02/16 06:17:22;;;;;;;;;;;;;;;28.94;17.98;102217.16;5070331;28;2062;-31
2023/02/16 06:19:47;;;;;;;;;;;;;;;28.85;18.06;102229.78;5062735;28;1127;-29
2023/02/16 06:22:12;;;;;;;;;;;;;;;28.24;18.72;102227.75;5065048;28;928;-29
2023/02/16 06:24:38;;;;;;;;;;;;;;;28.35;18.73;102220.44;5061117;28;1180;-27
2023/02/16 06:27:03;;;;;;;;;;;;;;;28.42;18.68;102226.94;5070868;28;1247;-25
2023/02/16 06:29:28;;;;;;;;;;;;;;;28.63;18.52;102233.84;5073037;28;1107;-29
2023/02/16 06:31:54;;;;;;;;;;;;;;;28.36;18.49;102231.09;5075480;28;1082;-26
2023/02/16 06:34:19;;;;;;;;;;;;;;;29.00;18.61;102229.22;5075413;28;1140;-24
2023/02/16 06:36:44;;;;;;;;;;;;;;;29.04;17.93;102232.47;5074453;28;1894;-26
2023/02/16 06:39:10;;;;;;;;;;;;;;;28.75;18.55;102233.59;5065759;28;1250;-30
2023/02/16 06:41:38;;;;;;;;;;;;;;;28.44;18.90;102218.66;5075037;28;1192;-34
2023/02/16 06:44:05;;;;;;;;;;;;;;;28.45;19.06;102223.91;5070338;28;1297;-30
2023/02/16 06:46:30;;;;;;;;;;;;;;;28.54;18.79;102229.38;5072302;28;2309;-35
2023/02/16 06:48:55;;;;;;;;;;;;;;;28.53;19.04;102231.25;5074305;28;1216;-32
2023/02/16 06:51:21;;;;;;;;;;;;;;;28.82;18.72;102227.41;5071207;28;1260;-32
2023/02/16 06:53:46;;;;;;;;;;;;;;;29.10;18.26;102221.00;5074055;28;1285;-33
2023/02/16 06:56:11;;;;;;;;;;;;;;;29.51;18.01;102220.31;5056930;28;1959;-33
2023/02/16 06:58:36;;;;;;;;;;;;;;;30.29;16.95;102213.94;5075702;28;1196;-31
2023/02/16 07:01:02;;;;;;;;;;;;;;;30.54;16.76;102220.22;5073966;28;1219;-27
2023/02/16 07:03:27;;;;;;;;;;;;;;;30.21;17.12;102225.66;5070574;28;1282;-29
2023/02/16 07:05:53;;;;;;;;;;;;;;;29.52;17.96;102227.47;5066342;28;1103;-31
2023/02/16 07:08:18;;;;;;;;;;;;;;;29.58;18.16;102229.50;5075301;28;996;-31
2023/02/16 07:10:44;;;;;;;;;;;;;;;29.86;17.78;102236.59;5075656;28;1067;-31
2023/02/16 07:13:09;;;;;;;;;;;;;;;29.73;17.69;102228.91;5057492;28;1072;-31
2023/02/16 07:15:34;;;;;;;;;;;;;;;29.63;17.62;102222.78;5056528;28;1953;-30
2023/02/16 07:17:59;;;;;;;;;;;;;;;30.89;16.92;102228.19;5053255;28;1156;-33
2023/02/16 07:20:26;;;;;;;;;;;;;;;30.94;17.07;102219.50;5067041;28;1069;-29
2023/02/16 07:22:51;;;;;;;;;;;;;;;31.31;16.30;102213.59;5070446;28;1098;-31
2023/02/16 07:25:17;;;;;;;;;;;;;;;30.70;16.89;102206.78;5057867;28;1040;-31
2023/02/16 07:27:42;;;;;;;;;;;;;;;29.57;18.39;102211.56;5072980;28;987;-25
2023/02/16 07:30:08;;;;;;;;;;;;;;;29.51;18.13;102205.94;5057674;28;1140;-30
2023/02/16 07:32:33;;;;;;;;;;;;;;;29.61;18.09;102201.25;5059613;28;1148;-34
2023/02/16 07:34:58;;;;;;;;;;;;;;;30.93;16.91;102198.75;5070985;28;1143;-30
2023/02/16 07:37:24;;;;;;;;;;;;;;;30.98;16.60;102195.53;5066002;28;1902;-32
2023/02/16 07:39:49;;;;;;;;;;;;;;;31.31;16.72;102203.56;5055536;28;1114;-31
2023/02/16 07:42:14;;;;;;;;;;;;;;;30.79;16.85;102195.75;5064326;28;1191;-28
2023/02/16 07:44:40;;;;;;;;;;;;;;;30.14;17.99;102194.72;5073007;28;1115;-34
2023/02/16 07:47:05;;;;;;;;;;;;;;;29.13;18.60;102188.16;5063843;28;2232;-29
2023/02/16 07:49:31;;;;;;;;;;;;;;;29.37;18.14;102191.13;5076006;28;1023;-30
2023/02/16 07:51:56;;;;;;;;;;;;;;;30.66;17.34;102179.13;5078435;28;1196;-28
2023/02/16 07:54:21;;;;;;;;;;;;;;;31.46;16.49;102179.25;5065407;28;1244;-27
2023/02/16 07:56:47;;;;;;;;;;;;;;;31.57;16.45;102183.41;5070937;28;1967;-30
2023/02/16 07:59:13;;;;;;;;;;;;;;;31.50;16.36;102176.97;5072083;28;1120;-29
2023/02/16 08:01:40;;;;;;;;;;;;;;;30.29;17.65;102175.94;5067519;28;1124;-27
2023/02/16 08:04:06;;;;;;;;;;;;;;;29.86;18.09;102179.63;5066349;28;1223;-28
2023/02/16 08:06:32;;;;;;;;;;;;;;;29.61;17.64;102174.16;5070809;28;1020;-26
2023/02/16 08:08:58;;;;;;;;;;;;;;;29.87;18.05;102175.03;5078471;28;1059;-30
2023/02/16 08:11:24;;;;;;;;;;;;;;;30.55;17.67;102161.31;5066867;28;1141;-25
2023/02/16 08:13:49;;;;;;;;;;;;;;;31.18;16.93;102166.06;5053350;28;1065;-29
2023/02/16 08:16:15;;;;;;;;;;;;;;;29.94;17.16;102163.34;5062091;28;1957;-26
2023/02/16 08:18:40;;;;;;;;;;;;;;;29.58;17.51;102167.16;5070034;28;1088;-30
2023/02/16 08:21:12;;;;;;;;;;;;;;;29.63;18.19;102171.28;5064904;28;1039;-32
2023/02/16 08:23:55;;;;;;;;;;;;;;;29.89;18.32;102175.72;5078171;28;1067;-30
2023/02/16 08:26:20;;;;;;;;;;;;;;;30.68;17.22;102160.75;5078402;28;996;-26
2023/02/16 08:28:46;;;;;;;;;;;;;;;30.60;17.20;102167.06;5059760;28;1190;-28
2023/02/16 08:31:12;;;;;;;;;;;;;;;29.10;18.70;102172.22;5069909;28;1167;-33
2023/02/16 08:33:37;;;;;;;;;;;;;;;29.51;18.19;102165.28;5064678;28;1238;-28
2023/02/16 08:36:03;;;;;;;;;;;;;;;30.43;17.42;102164.38;5066387;28;1905;-33
2023/02/16 08:38:28;;;;;;;;;;;;;;;30.41;17.71;102174.56;5071536;28;1128;-29
2023/02/16 08:40:54;;;;;;;;;;;;;;;29.68;17.83;102167.03;5064037;28;1002;-28
2023/02/16 08:43:19;;;;;;;;;;;;;;;29.36;18.27;102165.91;5067427;28;1254;-29
2023/02/16 08:45:46;;;;;;;;;;;;;;;30.08;18.10;102160.97;5068265;28;1749;-28
2023/02/16 08:48:11;;;;;;;;;;;;;;;30.55;17.58;102162.16;5075314;28;1214;-24
2023/02/16 08:50:36;;;;;;;;;;;;;;;30.56;17.47;102160.31;5076486;28;1496;-29
2023/02/16 08:53:02;;;;;;;;;;;;;;;29.70;17.92;102166.84;5071751;28;1039;-27
2023/02/16 08:55:27;;;;;;;;;;;;;;;29.65;18.16;102164.66;5066622;28;1955;-30
2023/02/16 08:57:53;;;;;;;;;;;;;;;29.63;18.14;102168.56;5076935;28;1183;-24
2023/02/16 09:00:33;;;;;;;;;;;;;;;29.59;18.20;102162.59;5074097;28;1273;-31
2023/02/16 09:02:59;;;;;;;;;;;;;;;29.33;19.19;102164.34;5064153;28;1047;-24
2023/02/16 09:05:24;;;;;;;;;;;;;;;29.48;18.29;102165.59;5065775;28;945;-34
2023/02/16 09:07:51;;;;;;;;;;;;;;;29.06;18.98;102166.28;5076835;28;1161;-30
2023/02/16 09:10:17;;;;;;;;;;;;;;;28.83;19.08;102160.53;5065996;28;1191;-29
2023/02/16 09:12:42;;;;;;;;;;;;;;;28.68;19.36;102155.72;5067825;28;1230;-33
2023/02/16 09:15:08;;;;;;;;;;;;;;;28.79;19.37;102149.19;5065263;28;1231;-26
2023/02/16 09:17:33;;;;;;;;;;;;;;;28.93;19.24;102160.41;5063722;28;1906;-25
2023/02/16 09:19:58;;;;;;;;;;;;;;;28.83;18.68;102147.00;5076804;28;1552;-29
2023/02/16 09:22:24;;;;;;;;;;;;;;;28.90;18.80;102153.47;5075675;28;1246;-30
2023/02/16 09:24:49;;;;;;;;;;;;;;;28.75;19.28;102142.38;5077491;28;995;-29
2023/02/16 09:27:15;;;;;;;;;;;;;;;29.25;19.15;102148.06;5071256;28;1008;-28
2023/02/16 09:29:40;;;;;;;;;;;;;;;30.37;17.77;102142.50;5069014;28;1012;-30
2023/02/16 09:32:08;;;;;;;;;;;;;;;30.62;17.27;102145.16;5063781;28;1052;-25
2023/02/16 09:34:33;;;;;;;;;;;;;;;30.38;16.99;102138.78;5062191;28;1051;-26
2023/02/16 09:36:59;;;;;;;;;;;;;;;29.20;18.19;102143.16;5057719;28;1910;-27
2023/02/16 09:39:25;;;;;;;;;;;;;;;29.73;17.81;102131.25;5076160;28;1075;-27
2023/02/16 09:41:59;;;;;;;;;;;;;;;28.94;18.80;102129.63;5063136;28;861;-29
2023/02/16 09:44:28;;;;;;;;;;;;;;;28.73;18.99;102128.16;5074938;28;1115;-28
2023/02/16 09:46:53;;;;;;;;;;;;;;;28.61;19.13;102130.31;5073135;28;2186;-32
2023/02/16 09:49:19;;;;;;;;;;;;;;;28.81;18.68;102124.66;5068927;28;1077;-29
2023/02/16 09:51:44;;;;;;;;;;;;;;;29.08;18.40;102122.75;5069353;28;1192;-30
2023/02/16 09:54:21;;;;;;;;;;;;;;;29.93;17.74;102115.53;5056592;28;1028;-31
2023/02/16 09:56:50;;;;;;;;;;;;;;;28.84;18.74;102116.22;5069823;28;1982;-29
2023/02/16 09:59:25;;;;;;;;;;;;;;;28.74;18.88;102105.50;5051267;28;1160;-28
2023/02/16 10:01:55;;;;;;;;;;;;;;;29.36;18.18;102100.84;5075084;28;1016;-29
2023/02/16 10:04:34;;;;;;;;;;;;;;;29.41;17.84;102103.88;5056237;28;1079;-24
2023/02/16 10:07:14;;;;;;;;;;;;;;;29.19;18.05;102103.53;5047291;28;1104;-29
2023/02/16 10:09:40;;;;;;;;;;;;;;;29.13;18.26;102098.72;5044263;28;1155;-24
2023/02/16 10:12:07;;;;;;;;;;;;;;;29.05;18.05;102098.72;5045393;28;1115;-27
2023/02/16 10:14:40;;;;;;;;;;;;;;;28.98;18.14;102097.69;5037657;28;1095;-29
2023/02/16 10:17:27;;;;;;;;;;;;;;;28.89;16.17;102100.31;5055848;28;2050;-31
2023/02/16 10:19:55;;;;;;;;;;;;;;;27.59;15.42;102086.31;5059971;28;1037;-27
2023/02/16 10:22:32;;;;;;;;;;;;;;;27.29;16.29;102080.28;5075962;28;1336;-29
2023/02/16 10:24:59;;;;;;;;;;;;;;;27.66;16.31;102078.44;5051459;28;1183;-25
2023/02/16 10:27:25;;;;;;;;;;;;;;;27.82;14.18;102076.91;5068623;28;1175;-26
2023/02/16 10:29:51;;;;;;;;;;;;;;;27.73;13.74;102075.97;5073751;28;1171;-31
2023/02/16 10:32:24;;;;;;;;;;;;;;;26.94;15.05;102069.22;5074236;28;1144;-28
2023/02/16 10:35:05;;;;;;;;;;;;;;;26.95;14.89;102072.72;5075405;28;1103;-29
2023/02/16 10:37:30;;;;;;;;;;;;;;;26.97;15.44;102059.94;5057577;28;1910;-31
2023/02/16 10:40:14;;;;;;;;;;;;;;;27.98;15.79;102066.25;5064271;28;1130;-27
2023/02/16 10:42:52;;;;;;;;;;;;;;;27.77;13.68;102066.56;5055582;28;1032;-27
2023/02/16 10:45:39;;;;;;;;;;;;;;;27.48;14.16;102063.06;5053714;28;1124;-28
2023/02/16 10:48:05;;;;;;;;;;;;;;;28.38;15.68;102070.44;5054676;28;1219;-31
2023/02/16 10:50:31;;;;;;;;;;;;;;;27.81;14.90;102048.19;5073734;28;1122;-29
2023/02/16 10:52:58;;;;;;;;;;;;;;;27.71;13.74;102057.22;5063916;28;1086;-26
2023/02/16 10:55:24;;;;;;;;;;;;;;;28.01;14.44;102048.00;5057595;28;1082;-27
2023/02/16 10:57:52;;;;;;;;;;;;;;;27.44;14.93;102044.63;5069324;28;1906;-26
2023/02/16 11:00:17;;;;;;;;;;;;;;;27.86;14.69;102041.28;5065264;28;1024;-28
2023/02/16 11:02:46;;;;;;;;;;;;;;;27.70;13.34;102042.00;5051291;28;1060;-25
2023/02/16 11:05:31;;;;;;;;;;;;;;;27.63;15.88;102035.47;5064571;28;1068;-31
2023/02/16 11:07:56;;;;;;;;;;;;;;;28.01;14.53;102039.88;5075439;28;1167;-29
2023/02/16 11:10:32;;;;;;;;;;;;;;;28.05;16.14;102030.44;5060443;28;1033;-32
2023/02/16 11:12:58;;;;;;;;;;;;;;;27.71;15.97;102027.47;5072896;28;1401;-33
2023/02/16 11:15:23;;;;;;;;;;;;;;;27.51;14.62;102034.88;5057572;28;1016;-29
2023/02/16 11:17:48;;;;;;;;;;;;;;;27.81;15.82;102023.84;5055324;28;2235;-29
2023/02/16 11:20:30;;;;;;;;;;;;;;;28.01;15.98;102027.19;5064717;28;1082;-29
2023/02/16 11:23:31;;;;;;;;;;;;;;;27.95;15.13;102028.69;5061796;28;1198;-30
2023/02/16 11:25:59;;;;;;;;;;;;;;;27.71;15.09;102010.44;4988155;28;1221;-26
2023/02/16 11:28:28;;;;;;;;;;;;;;;27.46;14.59;102010.19;5061549;28;1217;-26
2023/02/16 11:31:01;;;;;;;;;;;;;;;27.77;14.77;102008.94;5076815;28;1231;-30
2023/02/16 11:33:27;;;;;;;;;;;;;;;27.35;12.58;102004.00;5061181;28;1180;-27
2023/02/16 11:35:52;;;;;;;;;;;;;;;27.47;14.03;102004.63;5078842;28;1964;-29
2023/02/16 11:38:30;;;;;;;;;;;;;;;28.41;14.59;102016.00;5059208;28;1036;-30
2023/02/16 11:40:56;;;;;;;;;;;;;;;27.70;13.85;101998.75;5073334;28;1306;-26
2023/02/16 11:43:21;;;;;;;;;;;;;;;27.59;12.92;101994.41;5058756;28;1003;-31
2023/02/16 11:45:57;;;;;;;;;;;;;;;27.16;14.21;101996.03;5053780;28;1983;-30
2023/02/16 11:48:27;;;;;;;;;;;;;;;27.66;14.02;101989.22;5040966;28;1029;-27
2023/02/16 11:50:55;;;;;;;;;;;;;;;27.93;14.27;101994.69;5062476;28;1108;-25
2023/02/16 11:53:25;;;;;;;;;;;;;;;27.93;15.78;101990.13;5077242;28;1000;-30
2023/02/16 11:55:51;;;;;;;;;;;;;;;28.26;15.12;101985.94;5058589;28;1957;-28
2023/02/16 11:58:17;;;;;;;;;;;;;;;28.09;15.87;101989.38;5051076;28;850;-26
2023/02/16 12:00:48;;;;;;;;;;;;;;;27.77;13.71;101981.91;5077306;28;1183;-29
2023/02/16 12:03:33;;;;;;;;;;;;;;;27.44;14.46;101987.88;5077183;28;980;-27
2023/02/16 12:06:01;;;;;;;;;;;;;;;27.04;14.54;101992.72;5074869;28;1029;-25
2023/02/16 12:08:26;;;;;;;;;;;;;;;27.20;15.00;101987.47;5076313;28;1199;-26
2023/02/16 12:10:57;;;;;;;;;;;;;;;26.37;14.69;101976.56;5076776;28;1250;-24
2023/02/16 12:13:25;;;;;;;;;;;;;;;27.56;15.40;101975.78;5077162;28;1115;-28
2023/02/16 12:15:57;;;;;;;;;;;;;;;28.29;15.44;101970.25;5074833;28;1898;-25
2023/02/16 12:18:22;;;;;;;;;;;;;;;27.91;15.20;101966.97;5077671;28;851;-27
2023/02/16 12:20:48;;;;;;;;;;;;;;;27.50;14.75;101961.06;5073863;28;1523;-28
2023/02/16 12:23:29;;;;;;;;;;;;;;;27.71;15.35;101970.72;5076732;28;1207;-25
2023/02/16 12:26:10;;;;;;;;;;;;;;;26.60;16.40;101962.66;5058657;28;1204;-28
2023/02/16 12:28:38;;;;;;;;;;;;;;;27.25;16.34;101968.97;5059294;28;1123;-27
2023/02/16 12:31:08;;;;;;;;;;;;;;;28.29;15.71;101963.97;5075183;28;1332;-26
2023/02/16 12:33:51;;;;;;;;;;;;;;;28.30;15.66;101971.06;5071643;28;1321;-31
2023/02/16 12:36:27;;;;;;;;;;;;;;;27.36;16.39;101970.56;5067422;28;1957;-29
2023/02/16 12:38:55;;;;;;;;;;;;;;;29.43;15.78;101969.03;5056004;28;1174;-28
2023/02/16 12:41:30;;;;;;;;;;;;;;;29.99;15.62;101972.06;5068214;28;1325;-29
2023/02/16 12:44:02;;;;;;;;;;;;;;;28.66;15.96;101973.63;5053132;28;1138;-31
2023/02/16 12:46:39;;;;;;;;;;;;;;;27.84;15.85;101978.41;5058947;28;1318;-28
2023/02/16 12:49:23;;;;;;;;;;;;;;;27.21;15.76;101969.44;5075418;28;1231;-25
2023/02/16 12:51:52;;;;;;;;;;;;;;;26.71;16.09;101964.28;5075615;28;1234;-28
2023/02/16 12:54:21;;;;;;;;;;;;;;;26.23;16.83;101971.56;5077293;28;1408;-27
2023/02/16 12:56:51;;;;;;;;;;;;;;;26.17;16.75;101967.63;5076945;28;1971;-33
2023/02/16 12:59:17;;;;;;;;;;;;;;;26.97;17.40;101960.03;5059073;28;1103;-31
2023/02/16 13:01:42;;;;;;;;;;;;;;;27.51;17.37;101968.16;5081638;28;1100;-33
2023/02/16 13:04:13;;;;;;;;;;;;;;;26.84;16.52;101960.41;5067629;28;1080;-30
2023/02/16 13:06:41;;;;;;;;;;;;;;;27.13;17.17;101962.06;5065822;28;980;-33
2023/02/16 13:09:23;;;;;;;;;;;;;;;27.31;17.14;101958.53;5081924;28;1093;-31
2023/02/16 13:11:54;;;;;;;;;;;;;;;27.70;17.53;101955.50;5050255;28;1205;-30
2023/02/16 13:14:20;;;;;;;;;;;;;;;27.90;17.73;101959.84;5045633;28;1239;-29
2023/02/16 13:16:45;;;;;;;;;;;;;;;27.36;18.24;101950.81;5053192;28;1906;-27
2023/02/16 13:19:14;;;;;;;;;;;;;;;27.26;18.42;101945.47;5057854;28;1119;-30
2023/02/16 13:21:51;;;;;;;;;;;;;;;26.58;16.15;101948.47;5059213;28;1104;-30
2023/02/16 13:24:23;;;;;;;;;;;;;;;26.65;17.72;101932.53;5062944;28;1104;-30
2023/02/16 13:26:58;;;;;;;;;;;;;;;27.06;18.93;101940.22;5063600;28;1040;-30
2023/02/16 13:29:36;;;;;;;;;;;;;;;27.35;18.77;101941.00;5074158;28;1250;-30
2023/02/16 13:32:01;;;;;;;;;;;;;;;27.09;19.33;101947.19;5062208;28;1142;-31